Big Bear Station Historical Data
Daily Summary for May 5, 2019 Units:  English    Metric   Both
Next Day »
Daily Weekly Monthly Yearly Custom
  High: Low: Average:
Temperature: 65.5 °F 36.7 °F 48.7 °F
Dew Point: 39.9 °F 12.3 °F 25.6 °F
Humidity: 94% 21% 45%
Wind Speed: 7.3mph 0mph 2.4mph
Wind Gust: -999mph - -
Wind- - West
Pressure: 23.40 in 23.30 in -
Precipitation: 0 in    
Historical Graphs
 
 
Tabular Data for May 5, 2019
Time Temperature Dew Point Pressure Wind Wind Speed Wind Gust Humidity Rainfall Rate (Hourly)
00:06 39 °F 21.4 °F 23.40 in Calm   -999 mph 49% 0.00 in
00:21 38.7 °F 22.1 °F 23.40 in Calm   -999 mph 51% 0.00 in
00:36 37.9 °F 21.4 °F 23.40 in Calm   -999 mph 51% 0.00 in
00:52 37.4 °F 18.5 °F 23.40 in Calm   -999 mph 46% 0.00 in
01:07 37.2 °F 18.3 °F 23.39 in Calm   -999 mph 46% 0.00 in
01:22 37 °F 19.1 °F 23.39 in Calm   -999 mph 48% 0.00 in
01:37 36.9 °F 20 °F 23.39 in Calm   -999 mph 50% 0.00 in
01:52 36.7 °F 21.6 °F 23.38 in Calm   -999 mph 54% 0.00 in
02:08 37 °F 19.6 °F 23.38 in Calm   -999 mph 49% 0.00 in
02:23 38.1 °F 22.9 °F 23.37 in Calm   -999 mph 54% 0.00 in
02:38 37.9 °F 18.9 °F 23.37 in Calm   -999 mph 46% 0.00 in
02:53 39 °F 16.1 °F 23.37 in Calm   -999 mph 39% 0.00 in
03:08 41.5 °F 14.5 °F 23.36 in Calm   -999 mph 33% 0.00 in
03:24 41 °F 14.7 °F 23.36 in Calm   -999 mph 34% 0.00 in
03:39 40.6 °F 15.1 °F 23.36 in Calm   -999 mph 35% 0.00 in
03:54 40.5 °F 14.3 °F 23.36 in Calm   -999 mph 34% 0.00 in
04:09 41.4 °F 13.7 °F 23.36 in Calm   -999 mph 32% 0.00 in
04:24 41.4 °F 14.4 °F 23.36 in Calm   -999 mph 33% 0.00 in
04:40 41.2 °F 14.2 °F 23.35 in Calm   -999 mph 33% 0.00 in
04:55 42.1 °F 15 °F 23.35 in ESE 1.1 mph -999 mph 33% 0.00 in
05:10 41.9 °F 14.2 °F 23.35 in Calm   -999 mph 32% 0.00 in
05:25 42.4 °F 13.9 °F 23.35 in NNW 1.7 mph -999 mph 31% 0.00 in
05:41 43 °F 12.9 °F 23.35 in North 1.7 mph -999 mph 29% 0.00 in
05:56 43.2 °F 12.3 °F 23.35 in Calm   -999 mph 28% 0.00 in
06:11 43.3 °F 13.1 °F 23.35 in Calm   -999 mph 29% 0.00 in
06:26 42.3 °F 12.3 °F 23.35 in Calm   -999 mph 29% 0.00 in
06:41 42.3 °F 13 °F 23.36 in Calm   -999 mph 30% 0.00 in
06:57 42.3 °F 13.8 °F 23.36 in Calm   -999 mph 31% 0.00 in
07:12 43 °F 15.1 °F 23.36 in Calm   -999 mph 32% 0.00 in
07:27 44.8 °F 15.2 °F 23.36 in Calm   -999 mph 30% 0.00 in
07:42 46 °F 17.8 °F 23.36 in Calm   -999 mph 32% 0.00 in
07:57 46.4 °F 18.8 °F 23.36 in SSW 1.7 mph -999 mph 33% 0.00 in
08:13 46.8 °F 18.5 °F 23.36 in Calm   -999 mph 32% 0.00 in
08:28 48.4 °F 16.8 °F 23.36 in Calm   -999 mph 28% 0.00 in
08:43 49.8 °F 18.8 °F 23.36 in West 2.7 mph -999 mph 29% 0.00 in
08:58 50.9 °F 21.3 °F 23.36 in WNW 2.7 mph -999 mph 31% 0.00 in
09:13 51.6 °F 24.8 °F 23.36 in NW 3.7 mph -999 mph 35% 0.00 in
09:29 52.5 °F 21.1 °F 23.36 in NNW 3.7 mph -999 mph 29% 0.00 in
09:44 53.2 °F 20.9 °F 23.36 in WNW 4.7 mph -999 mph 28% 0.00 in
09:59 54 °F 19.9 °F 23.36 in Calm   -999 mph 26% 0.00 in
10:15 54.7 °F 23 °F 23.36 in North 2.7 mph -999 mph 29% 0.00 in
10:30 55 °F 21.6 °F 23.36 in NNW 2.7 mph -999 mph 27% 0.00 in
10:45 56.8 °F 21.3 °F 23.36 in NW 7.3 mph -999 mph 25% 0.00 in
11:00 58.3 °F 22.6 °F 23.36 in WNW 3.2 mph -999 mph 25% 0.00 in
11:15 59.2 °F 20.3 °F 23.37 in South 1.1 mph -999 mph 22% 0.00 in
11:31 60.3 °F 23.3 °F 23.37 in West 4.7 mph -999 mph 24% 0.00 in
11:46 60.4 °F 24.4 °F 23.37 in WNW 6.3 mph -999 mph 25% 0.00 in
12:01 61.2 °F 23.1 °F 23.36 in North 4.2 mph -999 mph 23% 0.00 in
12:17 62.1 °F 22.8 °F 23.36 in NNW 1.7 mph -999 mph 22% 0.00 in
12:32 64.2 °F 23.4 °F 23.36 in West 1.1 mph -999 mph 21% 0.00 in
12:47 62.6 °F 23.2 °F 23.36 in North 6.8 mph -999 mph 22% 0.00 in
13:03 63.1 °F 27.6 °F 23.35 in West 3.2 mph -999 mph 26% 0.00 in
13:18 63.5 °F 27 °F 23.35 in West 3.7 mph -999 mph 25% 0.00 in
13:33 65.5 °F 25.6 °F 23.35 in NNW 5.8 mph -999 mph 22% 0.00 in
13:48 64.8 °F 27.1 °F 23.35 in SSW 2.7 mph -999 mph 24% 0.00 in
14:03 63.9 °F 31.8 °F 23.35 in WSW 4.2 mph -999 mph 30% 0.00 in
14:19 63.3 °F 30.5 °F 23.35 in NNW 6.3 mph -999 mph 29% 0.00 in
14:34 60.8 °F 28.3 °F 23.35 in NNW 3.7 mph -999 mph 29% 0.00 in
14:49 60.1 °F 27.7 °F 23.35 in SSW 3.2 mph -999 mph 29% 0.00 in
15:04 59.9 °F 28.4 °F 23.35 in NNE 4.2 mph -999 mph 30% 0.00 in
15:20 61.3 °F 27.9 °F 23.34 in WNW 3.2 mph -999 mph 28% 0.00 in
15:35 60.1 °F 29.4 °F 23.34 in North 4.7 mph -999 mph 31% 0.00 in
15:50 60.1 °F 26.9 °F 23.34 in NW 4.7 mph -999 mph 28% 0.00 in
16:05 60.8 °F 29.2 °F 23.33 in WSW 3.7 mph -999 mph 30% 0.00 in
16:21 59.9 °F 29.2 °F 23.33 in NW 6.8 mph -999 mph 31% 0.00 in
16:36 60.1 °F 29.4 °F 23.33 in North 4.2 mph -999 mph 31% 0.00 in
16:51 63.1 °F 30.3 °F 23.33 in NW 4.2 mph -999 mph 29% 0.00 in
17:07 62.4 °F 32.1 °F 23.32 in NW 5.8 mph -999 mph 32% 0.00 in
17:22 60.4 °F 32.6 °F 23.32 in NNE 6.8 mph -999 mph 35% 0.00 in
17:38 59.7 °F 33.4 °F 23.32 in WNW 4.2 mph -999 mph 37% 0.00 in
17:53 58.8 °F 32.6 °F 23.32 in NW 5.3 mph -999 mph 37% 0.00 in
18:08 59.5 °F 33.9 °F 23.32 in South 2.2 mph -999 mph 38% 0.00 in
18:23 55.9 °F 35.4 °F 23.32 in NW 5.3 mph -999 mph 46% 0.00 in
18:39 51.4 °F 36.2 °F 23.32 in WNW 3.2 mph -999 mph 56% 0.00 in
18:54 48.6 °F 37.8 °F 23.31 in WNW 3.7 mph -999 mph 66% 0.00 in
19:09 46.4 °F 39.6 °F 23.30 in NW 5.3 mph -999 mph 77% 0.00 in
19:24 44.4 °F 39.9 °F 23.31 in West 6.3 mph -999 mph 84% 0.00 in
19:39 42.6 °F 39 °F 23.31 in NW 5.3 mph -999 mph 87% 0.00 in
19:55 42.1 °F 39.1 °F 23.31 in North 3.2 mph -999 mph 89% 0.00 in
20:10 41.5 °F 38.8 °F 23.31 in NW 2.7 mph -999 mph 90% 0.00 in
20:25 41.2 °F 38.8 °F 23.32 in Calm   -999 mph 91% 0.00 in
20:40 41.2 °F 38.2 °F 23.32 in SSE 3.2 mph -999 mph 89% 0.00 in
20:56 41.4 °F 38.4 °F 23.33 in West 2.2 mph -999 mph 89% 0.00 in
21:11 41.4 °F 38.1 °F 23.33 in East 3.7 mph -999 mph 88% 0.00 in
21:26 41.4 °F 38.1 °F 23.33 in Calm   -999 mph 88% 0.00 in
21:41 40.6 °F 37.3 °F 23.33 in Calm   -999 mph 88% 0.00 in
21:56 40.5 °F 36.9 °F 23.33 in Calm   -999 mph 87% 0.00 in
22:12 39.9 °F 36.6 °F 23.33 in SSW 1.1 mph -999 mph 88% 0.00 in
22:27 39.6 °F 37.2 °F 23.33 in Calm   -999 mph 91% 0.00 in
22:42 39.4 °F 37 °F 23.32 in NW 4.2 mph -999 mph 91% 0.00 in
22:57 39.2 °F 36.8 °F 23.32 in West 3.7 mph -999 mph 91% 0.00 in
23:13 39.2 °F 37.1 °F 23.32 in North 3.2 mph -999 mph 92% 0.00 in
23:28 39 °F 37.1 °F 23.32 in Calm   -999 mph 93% 0.00 in
23:43 38.8 °F 37.2 °F 23.32 in ESE 3.2 mph -999 mph 94% 0.00 in
23:58 38.7 °F 37.1 °F 23.32 in North 6.8 mph -999 mph 94% 0.00 in
Big Bear CA Weather